createdAt,value
2024-04-12T00:02:10.419Z,43.80
2024-04-12T00:04:38.074Z,42.97
2024-04-12T00:07:16.071Z,42.30
2024-04-12T00:09:45.050Z,41.30
2024-04-12T00:12:14.153Z,41.97
2024-04-12T00:14:46.167Z,42.80
2024-04-12T00:17:17.929Z,43.47
2024-04-12T00:19:47.763Z,42.57
2024-04-12T00:22:16.049Z,40.60
2024-04-12T00:24:43.446Z,40.97
2024-04-12T00:27:10.598Z,38.70
2024-04-12T00:29:38.604Z,40.67
2024-04-12T00:32:17.035Z,43.90
2024-04-12T00:34:49.946Z,42.07
2024-04-12T00:37:18.599Z,41.87
2024-04-12T00:39:50.853Z,42.77
2024-04-12T00:42:33.942Z,41.00
2024-04-12T00:45:04.178Z,41.80
2024-04-12T00:47:35.079Z,40.87
2024-04-12T00:50:05.296Z,42.37
2024-04-12T00:52:35.443Z,42.40
2024-04-12T00:55:09.726Z,40.50
2024-04-12T00:57:38.981Z,41.30
2024-04-12T01:00:10.476Z,43.20
2024-04-12T01:02:44.848Z,39.17
2024-04-12T01:05:16.696Z,40.70
2024-04-12T01:07:57.778Z,40.07
2024-04-12T01:10:32.417Z,40.53
2024-04-12T01:13:04.306Z,41.40
2024-04-12T01:15:34.501Z,41.30
2024-04-12T01:18:05.832Z,40.63
2024-04-12T01:20:37.588Z,39.90
2024-04-12T01:23:06.418Z,39.83
2024-04-12T01:25:35.452Z,40.10
2024-04-12T01:28:05.611Z,40.63
2024-04-12T01:30:32.704Z,42.33
2024-04-12T01:33:00.396Z,42.60
2024-04-12T01:35:27.665Z,39.40
2024-04-12T01:37:54.864Z,40.33
2024-04-12T01:40:24.931Z,38.60
2024-04-12T01:42:53.197Z,40.10
2024-04-12T01:45:28.934Z,43.77
2024-04-12T01:47:56.589Z,40.93
2024-04-12T01:50:24.039Z,42.80
2024-04-12T01:52:55.315Z,41.67
2024-04-12T01:55:24.189Z,42.83
2024-04-12T01:57:56.696Z,41.60
2024-04-12T02:00:24.999Z,44.20
2024-04-12T02:02:55.483Z,44.17
2024-04-12T02:05:31.043Z,42.00
2024-04-12T02:07:58.321Z,40.73
2024-04-12T02:10:25.078Z,42.33
2024-04-12T02:12:55.477Z,41.30
2024-04-12T02:15:27.291Z,41.57
2024-04-12T02:18:00.484Z,40.30
2024-04-12T02:20:38.058Z,42.37
2024-04-12T02:23:08.986Z,42.07
2024-04-12T02:25:41.110Z,43.97
2024-04-12T02:28:13.317Z,42.50
2024-04-12T02:30:55.140Z,42.10
2024-04-12T02:33:23.384Z,41.53
2024-04-12T02:36:13.904Z,40.17
2024-04-12T02:38:45.393Z,42.00
2024-04-12T02:41:16.134Z,41.33
2024-04-12T02:43:53.833Z,41.17
2024-04-12T02:46:21.514Z,39.80
2024-04-12T02:48:50.877Z,40.70
2024-04-12T02:51:20.091Z,38.93
2024-04-12T02:53:49.806Z,40.83
2024-04-12T02:56:19.040Z,38.80
2024-04-12T02:58:53.060Z,39.73
2024-04-12T03:01:21.671Z,41.07
2024-04-12T03:03:51.490Z,41.80
2024-04-12T03:06:21.623Z,38.87
2024-04-12T03:08:49.143Z,38.20
2024-04-12T03:11:26.968Z,41.10
2024-04-12T03:14:00.173Z,37.30
2024-04-12T03:16:27.940Z,39.00
2024-04-12T03:18:54.763Z,38.63
2024-04-12T03:21:22.970Z,40.50
2024-04-12T03:23:51.088Z,39.83
2024-04-12T03:26:20.268Z,38.57
2024-04-12T03:28:47.656Z,40.13
2024-04-12T03:31:14.399Z,39.00
2024-04-12T03:33:45.427Z,36.60
2024-04-12T03:36:33.650Z,38.57
2024-04-12T03:39:20.113Z,37.43
2024-04-12T03:42:01.055Z,37.13
2024-04-12T03:44:32.233Z,37.80
2024-04-12T03:47:11.057Z,40.73
2024-04-12T03:49:41.170Z,38.20
2024-04-12T03:52:21.187Z,38.23
2024-04-12T03:54:49.159Z,39.43
2024-04-12T03:57:17.498Z,38.93
2024-04-12T03:59:45.952Z,38.37
2024-04-12T04:02:15.933Z,36.87
2024-04-12T04:04:47.592Z,38.77
2024-04-12T04:07:19.502Z,38.10
2024-04-12T04:09:47.846Z,42.87
2024-04-12T04:12:18.572Z,43.47
2024-04-12T04:14:50.777Z,41.93
2024-04-12T04:17:20.010Z,42.37
2024-04-12T04:19:47.142Z,39.30
2024-04-12T04:22:23.753Z,39.57
2024-04-12T04:24:54.176Z,41.50
2024-04-12T04:27:25.114Z,39.57
2024-04-12T04:29:53.400Z,40.90
2024-04-12T04:32:23.458Z,41.47
2024-04-12T04:34:56.150Z,40.70
2024-04-12T04:37:27.867Z,38.93
2024-04-12T04:40:00.752Z,39.47
2024-04-12T04:42:27.546Z,38.53
2024-04-12T04:44:54.452Z,37.37
2024-04-12T04:47:24.713Z,40.80
2024-04-12T04:49:52.342Z,37.60
2024-04-12T04:52:19.125Z,38.90
2024-04-12T04:54:46.028Z,39.33
2024-04-12T04:57:14.065Z,37.80
2024-04-12T04:59:46.728Z,36.07
2024-04-12T05:02:14.292Z,39.07
2024-04-12T05:04:41.234Z,37.77
2024-04-12T05:07:08.493Z,41.37
2024-04-12T05:09:36.938Z,38.77
2024-04-12T05:12:04.076Z,40.67
2024-04-12T05:14:37.251Z,36.50
2024-04-12T05:17:05.282Z,39.00
2024-04-12T05:19:59.206Z,39.63
2024-04-12T05:22:28.072Z,41.70
2024-04-12T05:24:55.059Z,39.27
2024-04-12T05:27:22.255Z,40.37
2024-04-12T05:29:49.166Z,39.17
2024-04-12T05:32:15.971Z,39.73
2024-04-12T05:34:43.035Z,37.43
2024-04-12T05:37:10.321Z,38.23
2024-04-12T05:39:37.914Z,40.70
2024-04-12T05:42:08.284Z,35.90
2024-04-12T05:44:35.837Z,37.53
2024-04-12T05:47:08.751Z,39.60
2024-04-12T05:49:35.727Z,38.63
2024-04-12T05:52:02.855Z,40.33
2024-04-12T05:54:41.339Z,40.37
2024-04-12T05:57:09.196Z,42.17
2024-04-12T05:59:36.491Z,41.50
2024-04-12T06:02:07.431Z,44.63
2024-04-12T06:04:37.541Z,41.10
2024-04-12T06:07:13.210Z,42.70
2024-04-12T06:09:40.231Z,44.27
2024-04-12T06:12:08.594Z,40.63
2024-04-12T06:14:43.773Z,40.00
2024-04-12T06:17:11.211Z,41.77
2024-04-12T06:19:39.863Z,42.17
2024-04-12T06:22:14.911Z,47.40
2024-04-12T06:24:50.537Z,42.67
2024-04-12T06:27:20.776Z,45.00
2024-04-12T06:29:48.020Z,43.00
2024-04-12T06:32:17.942Z,42.17
2024-04-12T06:34:44.888Z,40.20
2024-04-12T06:37:12.967Z,43.53
2024-04-12T06:39:41.993Z,42.43
2024-04-12T06:42:10.787Z,38.70
2024-04-12T06:44:38.035Z,38.27
2024-04-12T06:47:07.575Z,38.33
2024-04-12T06:49:38.973Z,39.20
2024-04-12T06:52:12.146Z,37.73
2024-04-12T06:54:42.654Z,41.10
2024-04-12T06:57:19.732Z,39.60
2024-04-12T07:00:00.422Z,40.57
2024-04-12T07:02:28.427Z,40.80
2024-04-12T07:04:56.020Z,42.20
2024-04-12T07:07:29.564Z,39.20
2024-04-12T07:10:00.869Z,42.57
2024-04-12T07:12:34.001Z,40.43
2024-04-12T07:15:02.312Z,40.47
2024-04-12T07:17:30.488Z,41.17
2024-04-12T07:20:01.483Z,40.20
2024-04-12T07:22:28.833Z,41.20
2024-04-12T07:24:57.133Z,39.70
2024-04-12T07:27:29.067Z,41.77
2024-04-12T07:29:56.521Z,39.97
2024-04-12T07:32:24.065Z,41.40
2024-04-12T07:34:54.046Z,40.20
2024-04-12T07:37:33.598Z,43.27
2024-04-12T07:40:19.109Z,42.67
2024-04-12T07:42:50.009Z,41.30
2024-04-12T07:45:24.439Z,43.90
2024-04-12T07:47:55.664Z,42.83
2024-04-12T07:50:32.776Z,38.80
2024-04-12T07:53:27.402Z,39.20
2024-04-12T07:56:11.575Z,38.80
2024-04-12T07:58:42.061Z,38.60
2024-04-12T08:01:27.565Z,39.20
2024-04-12T08:04:20.514Z,38.60
2024-04-12T08:06:47.263Z,38.83
2024-04-12T08:09:23.525Z,38.87
2024-04-12T08:11:53.875Z,37.47
2024-04-12T08:14:24.028Z,41.33
2024-04-12T08:16:55.618Z,39.80
2024-04-12T08:19:51.957Z,39.67
2024-04-12T08:22:21.533Z,38.40
2024-04-12T08:24:53.368Z,41.23
2024-04-12T08:27:21.454Z,41.80
2024-04-12T08:29:49.835Z,38.40
2024-04-12T08:32:20.726Z,39.47
2024-04-12T08:34:49.559Z,39.80
2024-04-12T08:37:18.061Z,38.50
2024-04-12T08:39:45.891Z,39.10
2024-04-12T08:42:18.315Z,42.00
2024-04-12T08:44:46.202Z,40.40
2024-04-12T08:47:29.436Z,41.80
2024-04-12T08:50:09.300Z,38.67
2024-04-12T08:52:50.086Z,38.23
2024-04-12T08:55:22.214Z,37.80
2024-04-12T08:57:54.004Z,39.07
2024-04-12T09:00:25.747Z,39.90
2024-04-12T09:03:04.079Z,39.67
2024-04-12T09:05:36.436Z,38.93
2024-04-12T09:08:08.030Z,41.83
2024-04-12T09:10:36.679Z,38.80
2024-04-12T09:13:04.475Z,40.60
2024-04-12T09:15:33.645Z,40.40
2024-04-12T09:18:03.039Z,42.50
2024-04-12T09:20:36.441Z,39.43
2024-04-12T09:23:20.923Z,40.57
2024-04-12T09:25:55.911Z,39.60
2024-04-12T09:28:28.755Z,39.83
2024-04-12T09:31:15.674Z,38.87
2024-04-12T09:33:52.432Z,38.23
2024-04-12T09:36:41.051Z,38.83
2024-04-12T09:39:17.463Z,38.97
2024-04-12T09:42:04.730Z,38.13
2024-04-12T09:44:50.277Z,38.87
2024-04-12T09:47:18.157Z,38.90
2024-04-12T09:50:05.023Z,38.30
2024-04-12T09:52:51.713Z,38.20
2024-04-12T09:55:41.754Z,36.77
2024-04-12T09:58:28.578Z,37.37
2024-04-12T10:01:18.884Z,36.50
2024-04-12T10:04:06.225Z,38.57
2024-04-12T10:06:56.920Z,37.80
2024-04-12T10:09:42.132Z,38.30
2024-04-12T10:12:28.841Z,38.70
2024-04-12T10:15:15.750Z,37.87
2024-04-12T10:18:03.276Z,38.90
2024-04-12T10:20:58.104Z,40.20
2024-04-12T10:23:49.715Z,40.60
2024-04-12T10:26:35.518Z,38.47
2024-04-12T10:29:24.672Z,40.50
2024-04-12T10:32:09.962Z,40.20
2024-04-12T10:34:55.370Z,38.57
2024-04-12T10:37:30.755Z,38.63
2024-04-12T10:40:00.838Z,36.07
2024-04-12T10:42:27.606Z,37.83
2024-04-12T10:44:58.093Z,39.30
2024-04-12T10:47:25.258Z,36.93
2024-04-12T10:49:52.688Z,36.90
2024-04-12T10:52:30.298Z,39.63
2024-04-12T10:55:01.273Z,37.00
2024-04-12T10:57:31.233Z,38.50
2024-04-12T11:00:02.508Z,35.63
2024-04-12T11:02:31.140Z,38.20
2024-04-12T11:05:07.535Z,35.57
2024-04-12T11:07:34.531Z,36.37
2024-04-12T11:10:05.314Z,37.50
2024-04-12T11:12:42.175Z,37.70
2024-04-12T11:15:35.447Z,39.03
2024-04-12T11:18:21.577Z,37.23
2024-04-12T11:21:20.954Z,39.40
2024-04-12T11:24:22.648Z,36.73
2024-04-12T11:27:08.276Z,35.90
2024-04-12T11:29:57.345Z,36.60
2024-04-12T11:32:25.008Z,37.57
2024-04-12T11:34:53.487Z,38.37
2024-04-12T11:37:25.841Z,38.60
2024-04-12T11:39:54.226Z,38.40
2024-04-12T11:42:21.259Z,37.80
2024-04-12T11:44:55.330Z,35.47
2024-04-12T11:47:25.279Z,36.70
2024-04-12T11:49:59.490Z,37.10
2024-04-12T11:52:27.229Z,38.73
2024-04-12T11:54:59.882Z,37.90
2024-04-12T11:57:30.215Z,37.27
2024-04-12T12:00:01.415Z,39.63
2024-04-12T12:02:29.684Z,38.30
2024-04-12T12:04:57.979Z,38.27
2024-04-12T12:07:24.897Z,38.30
2024-04-12T12:09:51.709Z,37.37
2024-04-12T12:12:23.741Z,36.70
2024-04-12T12:14:53.827Z,36.50
2024-04-12T12:17:21.652Z,38.47
2024-04-12T12:19:53.028Z,37.70
2024-04-12T12:22:21.026Z,36.70
2024-04-12T12:24:49.060Z,36.87
2024-04-12T12:27:21.569Z,36.63
2024-04-12T12:29:52.634Z,37.60
2024-04-12T12:32:20.567Z,34.97
2024-04-12T12:34:48.650Z,36.70
2024-04-12T12:37:15.591Z,36.60
2024-04-12T12:39:43.096Z,37.40
2024-04-12T12:42:11.569Z,38.23
2024-04-12T12:44:38.615Z,34.67
2024-04-12T12:47:07.346Z,37.07
2024-04-12T12:49:48.516Z,37.77
2024-04-12T12:52:15.985Z,35.40
2024-04-12T12:54:43.962Z,39.43
2024-04-12T12:57:13.139Z,37.10
2024-04-12T12:59:45.190Z,39.80
2024-04-12T13:02:15.953Z,39.33
2024-04-12T13:04:48.224Z,36.50
2024-04-12T13:07:17.917Z,37.70
2024-04-12T13:09:45.166Z,37.27
2024-04-12T13:12:12.358Z,39.17
2024-04-12T13:14:47.398Z,39.27
2024-04-12T13:17:15.741Z,39.13
2024-04-12T13:19:43.542Z,38.30
2024-04-12T13:22:14.273Z,37.67
2024-04-12T13:24:41.895Z,41.10
2024-04-12T13:27:08.920Z,39.47
2024-04-12T13:29:38.207Z,37.83
2024-04-12T13:32:10.576Z,43.70
2024-04-12T13:34:39.054Z,38.00
2024-04-12T13:37:07.830Z,38.63
2024-04-12T13:39:37.760Z,39.70
2024-04-12T13:42:07.612Z,38.10
2024-04-12T13:44:53.472Z,39.33
2024-04-12T13:47:38.964Z,40.07
2024-04-12T13:50:24.988Z,39.93
2024-04-12T13:52:52.400Z,38.43
2024-04-12T13:55:22.239Z,38.23
2024-04-12T13:57:49.409Z,39.97
2024-04-12T14:00:29.294Z,38.83
2024-04-12T14:02:56.147Z,38.40
2024-04-12T14:05:23.534Z,35.70
2024-04-12T14:07:53.511Z,38.80
2024-04-12T14:10:23.005Z,37.90
2024-04-12T14:12:50.208Z,39.60
2024-04-12T14:15:24.567Z,37.63
2024-04-12T14:17:53.294Z,36.03
2024-04-12T14:20:21.981Z,36.87
2024-04-12T14:22:49.038Z,35.03
2024-04-12T14:25:15.869Z,34.43
2024-04-12T14:27:48.075Z,35.70
2024-04-12T14:30:17.119Z,34.77
2024-04-12T14:32:52.832Z,36.03
2024-04-12T14:35:21.866Z,37.00
2024-04-12T14:37:48.913Z,35.10
2024-04-12T14:40:19.911Z,34.40
2024-04-12T14:42:50.787Z,34.70
2024-04-12T14:45:21.623Z,33.77
2024-04-12T14:47:55.810Z,35.10
2024-04-12T14:50:29.233Z,36.07
2024-04-12T14:52:56.157Z,33.30
2024-04-12T14:55:23.101Z,32.73
2024-04-12T14:57:52.001Z,34.77
2024-04-12T15:00:21.043Z,32.17
2024-04-12T15:02:48.450Z,33.20
2024-04-12T15:05:34.585Z,32.83
2024-04-12T15:08:20.308Z,34.13
2024-04-12T15:11:07.058Z,32.57
2024-04-12T15:13:52.505Z,32.90
2024-04-12T15:16:37.924Z,30.23
2024-04-12T15:19:23.804Z,32.90
2024-04-12T15:22:09.079Z,31.03
2024-04-12T15:24:54.353Z,31.50
2024-04-12T15:27:39.632Z,32.77
2024-04-12T15:30:25.653Z,32.70
2024-04-12T15:33:11.765Z,33.50
2024-04-12T15:35:57.445Z,32.17
2024-04-12T15:38:43.008Z,31.10
2024-04-12T15:41:28.456Z,33.57
2024-04-12T15:44:14.571Z,31.50
2024-04-12T15:47:01.048Z,33.57
2024-04-12T15:49:36.442Z,34.00
2024-04-12T15:52:12.577Z,32.17
2024-04-12T15:54:47.617Z,34.17
2024-04-12T15:57:33.259Z,33.57
2024-04-12T16:00:18.961Z,34.63
2024-04-12T16:03:04.725Z,33.07
2024-04-12T16:05:50.259Z,32.33
2024-04-12T16:08:35.654Z,32.73
2024-04-12T16:11:03.007Z,32.20
2024-04-12T16:13:31.007Z,35.30
2024-04-12T16:15:58.363Z,34.90
2024-04-12T16:18:25.435Z,35.60
2024-04-12T16:20:52.453Z,37.60
2024-04-12T16:23:19.319Z,34.87
2024-04-12T16:25:57.830Z,35.87
2024-04-12T16:28:30.266Z,38.10
2024-04-12T16:30:58.881Z,36.30
2024-04-12T16:33:27.689Z,36.27
2024-04-12T16:35:54.707Z,37.83
2024-04-12T16:38:22.483Z,37.90
2024-04-12T16:40:49.320Z,37.50
2024-04-12T16:43:16.830Z,37.97
2024-04-12T16:45:43.836Z,35.53
2024-04-12T16:48:10.845Z,35.00
2024-04-12T16:50:37.964Z,37.20
2024-04-12T16:53:04.957Z,36.30
2024-04-12T16:55:31.717Z,37.77
2024-04-12T16:58:01.451Z,38.40
2024-04-12T17:00:30.803Z,39.10
2024-04-12T17:02:57.763Z,35.40
2024-04-12T17:05:24.649Z,38.40
2024-04-12T17:07:51.493Z,37.57
2024-04-12T17:10:20.592Z,37.07
2024-04-12T17:12:47.919Z,38.23
2024-04-12T17:15:14.934Z,37.40
2024-04-12T17:17:41.963Z,41.50
2024-04-12T17:20:10.747Z,34.83
2024-04-12T17:22:39.575Z,36.10
2024-04-12T17:25:09.870Z,39.33
2024-04-12T17:27:37.732Z,37.00
2024-04-12T17:30:05.273Z,39.33
2024-04-12T17:32:36.223Z,38.23
2024-04-12T17:35:07.611Z,39.03
2024-04-12T17:37:34.540Z,39.23
2024-04-12T17:40:01.679Z,39.07
2024-04-12T17:42:28.523Z,38.47
2024-04-12T17:44:56.971Z,37.70
2024-04-12T17:47:25.560Z,38.10
2024-04-12T17:49:53.410Z,42.10
2024-04-12T17:52:20.468Z,40.17
2024-04-12T17:54:47.354Z,41.23
2024-04-12T17:57:15.203Z,41.80
2024-04-12T17:59:42.264Z,41.83
2024-04-12T18:02:09.209Z,40.77
2024-04-12T18:04:39.050Z,41.73
2024-04-12T18:07:06.898Z,42.17
2024-04-12T18:09:34.313Z,41.43
2024-04-12T18:12:02.075Z,42.90
2024-04-12T18:14:29.010Z,41.40
2024-04-12T18:16:55.949Z,40.50
2024-04-12T18:19:22.993Z,42.47
2024-04-12T18:21:50.017Z,43.50
2024-04-12T18:24:16.916Z,41.47
2024-04-12T18:26:44.206Z,38.30
2024-04-12T18:29:10.922Z,39.90
2024-04-12T18:31:38.449Z,37.97
2024-04-12T18:34:08.429Z,39.07
2024-04-12T18:36:41.179Z,39.00
2024-04-12T18:39:26.927Z,39.77
2024-04-12T18:42:12.410Z,41.03
2024-04-12T18:44:58.025Z,39.10
2024-04-12T18:47:25.750Z,40.70
2024-04-12T18:49:52.653Z,41.10
2024-04-12T18:52:19.460Z,38.43
2024-04-12T18:54:46.311Z,40.97
2024-04-12T18:57:13.644Z,43.60
2024-04-12T18:59:40.454Z,42.23
2024-04-12T19:02:08.368Z,42.23
2024-04-12T19:04:35.280Z,40.70
2024-04-12T19:07:02.403Z,42.17
2024-04-12T19:09:32.716Z,41.13
2024-04-12T19:12:00.367Z,40.97
2024-04-12T19:14:27.370Z,42.67
2024-04-12T19:16:54.247Z,41.60
2024-04-12T19:19:21.361Z,41.43
2024-04-12T19:21:48.166Z,41.93
2024-04-12T19:24:15.082Z,40.87
2024-04-12T19:26:41.910Z,40.50
2024-04-12T19:29:08.773Z,41.27
2024-04-12T19:31:37.598Z,41.40
2024-04-12T19:34:04.417Z,39.93
2024-04-12T19:36:31.593Z,42.40
2024-04-12T19:39:01.137Z,41.60
2024-04-12T19:41:29.218Z,40.77
2024-04-12T19:43:56.131Z,41.60
2024-04-12T19:46:23.117Z,41.07
2024-04-12T19:48:50.707Z,43.47
2024-04-12T19:51:17.797Z,42.00
2024-04-12T19:53:44.711Z,41.73
2024-04-12T19:56:11.518Z,41.80
2024-04-12T19:58:39.141Z,41.67
2024-04-12T20:01:07.149Z,42.73
2024-04-12T20:03:36.212Z,45.93
2024-04-12T20:06:03.796Z,42.07
2024-04-12T20:08:30.652Z,41.97
2024-04-12T20:11:02.287Z,41.77
2024-04-12T20:13:29.912Z,44.20
2024-04-12T20:16:04.534Z,41.53
2024-04-12T20:18:33.003Z,42.50
2024-04-12T20:21:01.448Z,42.73
2024-04-12T20:23:30.676Z,43.50
2024-04-12T20:26:19.350Z,43.97
2024-04-12T20:28:48.396Z,42.80
2024-04-12T20:31:19.773Z,43.10
2024-04-12T20:34:04.200Z,41.87
2024-04-12T20:36:39.093Z,42.90
2024-04-12T20:39:19.149Z,45.67
2024-04-12T20:41:48.269Z,43.60
2024-04-12T20:44:20.560Z,46.07
2024-04-12T20:46:48.939Z,43.70
2024-04-12T20:49:16.607Z,44.40
2024-04-12T20:51:48.357Z,42.00
2024-04-12T20:54:16.445Z,42.23
2024-04-12T20:56:45.999Z,41.50
2024-04-12T20:59:13.149Z,45.33
2024-04-12T21:01:43.371Z,42.23
2024-04-12T21:04:10.572Z,45.17
2024-04-12T21:06:37.455Z,42.80
2024-04-12T21:09:05.799Z,40.47
2024-04-12T21:11:32.922Z,44.77
2024-04-12T21:13:59.838Z,43.47
2024-04-12T21:16:29.318Z,41.37
2024-04-12T21:18:59.197Z,42.63
2024-04-12T21:21:26.160Z,44.87
2024-04-12T21:23:53.231Z,44.77
2024-04-12T21:26:26.923Z,43.37
2024-04-12T21:28:54.215Z,42.77
2024-04-12T21:31:21.941Z,42.07
2024-04-12T21:33:49.308Z,42.70
2024-04-12T21:36:16.659Z,42.00
2024-04-12T21:38:44.331Z,41.43
2024-04-12T21:41:17.085Z,43.40
2024-04-12T21:43:49.186Z,40.57
2024-04-12T21:46:20.458Z,41.67
2024-04-12T21:48:48.887Z,43.17
2024-04-12T21:51:21.518Z,42.87
2024-04-12T21:53:48.945Z,45.63
2024-04-12T21:56:17.011Z,43.13
2024-04-12T21:58:43.926Z,42.43
2024-04-12T22:01:12.864Z,45.60
2024-04-12T22:03:40.501Z,44.20
2024-04-12T22:06:08.539Z,43.20
2024-04-12T22:08:36.694Z,41.60
2024-04-12T22:11:10.148Z,42.07
2024-04-12T22:13:38.389Z,43.53
2024-04-12T22:16:09.128Z,42.50
2024-04-12T22:18:38.171Z,41.57
2024-04-12T22:21:09.560Z,40.83
2024-04-12T22:23:39.515Z,42.73
2024-04-12T22:26:28.664Z,41.63
2024-04-12T22:28:56.435Z,41.80
2024-04-12T22:31:23.736Z,41.17
2024-04-12T22:33:52.835Z,44.90
2024-04-12T22:36:21.238Z,44.20
2024-04-12T22:38:48.843Z,41.60
2024-04-12T22:41:15.965Z,41.37
2024-04-12T22:43:42.922Z,44.87
2024-04-12T22:46:09.819Z,44.57
2024-04-12T22:48:38.666Z,41.87
2024-04-12T22:51:07.462Z,44.40
2024-04-12T22:53:34.404Z,42.60
2024-04-12T22:56:01.326Z,43.70
2024-04-12T22:58:28.226Z,42.50
2024-04-12T23:00:55.280Z,43.33
2024-04-12T23:03:22.187Z,41.13
2024-04-12T23:05:49.218Z,43.07
2024-04-12T23:08:16.368Z,45.50
2024-04-12T23:10:43.320Z,43.80
2024-04-12T23:13:13.320Z,46.63
2024-04-12T23:15:40.497Z,47.67
2024-04-12T23:18:07.491Z,48.57
2024-04-12T23:20:35.699Z,49.87
2024-04-12T23:23:04.230Z,46.50
2024-04-12T23:25:35.322Z,45.20
2024-04-12T23:28:02.238Z,44.83
2024-04-12T23:30:29.202Z,44.83
2024-04-12T23:32:56.372Z,42.90
2024-04-12T23:35:23.464Z,43.70
2024-04-12T23:37:50.295Z,42.90
2024-04-12T23:40:17.374Z,42.80
2024-04-12T23:42:44.241Z,42.90
2024-04-12T23:45:11.403Z,44.93
2024-04-12T23:47:38.478Z,41.40
2024-04-12T23:50:05.879Z,41.47
2024-04-12T23:52:32.861Z,42.87
2024-04-12T23:54:59.908Z,42.40
2024-04-12T23:57:27.776Z,39.47
2024-04-12T23:59:54.910Z,45.13
